createdAt,value
2023-04-18T00:00:07.105Z,6.83
2023-04-18T00:00:17.164Z,6.82
2023-04-18T00:00:27.222Z,6.82
2023-04-18T00:00:37.353Z,6.81
2023-04-18T00:00:47.410Z,6.82
2023-04-18T00:00:57.439Z,6.82
2023-04-18T00:01:07.483Z,6.81
2023-04-18T00:01:17.534Z,6.82
2023-04-18T00:01:27.582Z,6.81
2023-04-18T00:01:37.711Z,6.79
2023-04-18T00:01:47.774Z,6.79
2023-04-18T00:01:57.930Z,6.79
2023-04-18T00:02:07.875Z,6.81
2023-04-18T00:02:18.051Z,6.81
2023-04-18T00:02:28.107Z,6.81
2023-04-18T00:02:38.170Z,6.81
2023-04-18T00:02:48.214Z,6.79
2023-04-18T00:02:59.184Z,6.81
2023-04-18T00:03:08.488Z,6.81
2023-04-18T00:03:18.579Z,6.79
2023-04-18T00:03:28.780Z,6.81
2023-04-18T00:03:38.894Z,6.79
2023-04-18T00:03:49.030Z,6.79
2023-04-18T00:03:58.889Z,6.79
2023-04-18T00:04:09.025Z,6.79
2023-04-18T00:04:19.431Z,6.81
2023-04-18T00:04:29.197Z,6.79
2023-04-18T00:04:39.147Z,6.81
2023-04-18T00:04:49.220Z,6.81
2023-04-18T00:04:59.368Z,6.79
2023-04-18T00:05:09.476Z,6.81
2023-04-18T00:05:19.559Z,6.82
2023-04-18T00:05:29.731Z,6.82
2023-04-18T00:05:39.732Z,6.81
2023-04-18T00:05:49.759Z,6.82
2023-04-18T00:05:59.789Z,6.81
2023-04-18T00:06:09.814Z,6.81
2023-04-18T00:06:19.867Z,6.81
2023-04-18T00:06:29.905Z,6.81
2023-04-18T00:06:40.033Z,6.82
2023-04-18T00:06:50.099Z,6.82
2023-04-18T00:07:00.185Z,6.81
2023-04-18T00:07:10.227Z,6.81
2023-04-18T00:07:20.262Z,6.82
2023-04-18T00:07:30.287Z,6.82
2023-04-18T00:07:40.330Z,6.81
2023-04-18T00:07:50.386Z,6.82
2023-04-18T00:08:00.421Z,6.81
2023-04-18T00:08:10.540Z,6.81
2023-04-18T00:08:20.573Z,6.81
2023-04-18T00:08:30.602Z,6.81
2023-04-18T00:08:40.636Z,6.81
2023-04-18T00:08:50.684Z,6.79
2023-04-18T00:09:00.790Z,6.79
2023-04-18T00:09:10.819Z,6.79
2023-04-18T00:09:20.857Z,6.78
2023-04-18T00:09:30.920Z,6.78
2023-04-18T00:09:40.978Z,6.78
2023-04-18T00:09:50.980Z,6.76
2023-04-18T00:10:01.054Z,6.76
2023-04-18T00:10:11.049Z,6.78
2023-04-18T00:10:21.100Z,6.76
2023-04-18T00:10:31.137Z,6.76
2023-04-18T00:10:41.175Z,6.76
2023-04-18T00:10:51.192Z,6.76
2023-04-18T00:11:01.219Z,6.76
2023-04-18T00:11:11.263Z,6.76
2023-04-18T00:11:21.321Z,6.75
2023-04-18T00:11:31.382Z,6.76
2023-04-18T00:11:41.455Z,6.75
2023-04-18T00:11:51.482Z,6.76
2023-04-18T00:12:01.528Z,6.75
2023-04-18T00:12:11.610Z,6.75
2023-04-18T00:12:21.648Z,6.75
2023-04-18T00:12:31.685Z,6.76
2023-04-18T00:12:41.701Z,6.73
2023-04-18T00:12:51.758Z,6.73
2023-04-18T00:13:01.780Z,6.73
2023-04-18T00:13:11.818Z,6.73
2023-04-18T00:13:21.872Z,6.73
2023-04-18T00:13:31.910Z,6.73
2023-04-18T00:13:41.928Z,6.72
2023-04-18T00:13:51.944Z,6.72
2023-04-18T00:14:01.962Z,6.72
2023-04-18T00:14:12.298Z,6.73
2023-04-18T00:14:22.142Z,6.72
2023-04-18T00:14:32.240Z,6.72
2023-04-18T00:14:42.281Z,6.73
2023-04-18T00:14:52.309Z,6.73
2023-04-18T00:15:02.380Z,6.72
2023-04-18T00:15:12.406Z,6.71
2023-04-18T00:15:22.433Z,6.71
2023-04-18T00:15:32.473Z,6.72
2023-04-18T00:15:42.513Z,6.71
2023-04-18T00:15:52.573Z,6.72
2023-04-18T00:16:02.605Z,6.71
2023-04-18T00:16:12.680Z,6.72
2023-04-18T00:16:22.748Z,6.71
2023-04-18T00:16:32.814Z,6.72
2023-04-18T00:16:42.937Z,6.71
2023-04-18T00:16:52.994Z,6.69
2023-04-18T00:17:03.131Z,6.69
2023-04-18T00:17:13.241Z,6.71
2023-04-18T00:17:23.274Z,6.69
2023-04-18T00:17:33.398Z,6.69
2023-04-18T00:17:43.446Z,6.69
2023-04-18T00:17:53.513Z,6.71
2023-04-18T00:18:03.668Z,6.69
2023-04-18T00:18:13.590Z,6.69
2023-04-18T00:18:23.623Z,6.71
2023-04-18T00:18:33.650Z,6.71
2023-04-18T00:18:43.669Z,6.71
2023-04-18T00:18:53.734Z,6.69
2023-04-18T00:19:03.747Z,6.71
2023-04-18T00:19:13.778Z,6.69
2023-04-18T00:19:23.803Z,6.71
2023-04-18T00:19:33.848Z,6.69
2023-04-18T00:19:43.876Z,6.71
2023-04-18T00:19:53.940Z,6.71
2023-04-18T00:20:03.981Z,6.71
2023-04-18T00:20:14.066Z,6.69
2023-04-18T00:20:24.086Z,6.71
2023-04-18T00:20:34.209Z,6.71
2023-04-18T00:20:44.228Z,6.69
2023-04-18T00:20:54.254Z,6.69
2023-04-18T00:21:04.395Z,6.69
2023-04-18T00:21:14.387Z,6.68
2023-04-18T00:21:24.428Z,6.68
2023-04-18T00:21:34.496Z,6.68
2023-04-18T00:21:44.540Z,6.69
2023-04-18T00:21:54.590Z,6.68
2023-04-18T00:22:04.637Z,6.68
2023-04-18T00:22:14.671Z,6.69
2023-04-18T00:22:24.698Z,6.69
2023-04-18T00:22:34.736Z,6.68
2023-04-18T00:22:44.767Z,6.69
2023-04-18T00:22:54.812Z,6.69
2023-04-18T00:23:04.854Z,6.69
2023-04-18T00:23:14.898Z,6.69
2023-04-18T00:23:24.899Z,6.71
2023-04-18T00:23:34.934Z,6.69
2023-04-18T00:23:44.983Z,6.69
2023-04-18T00:23:55.024Z,6.69
2023-04-18T00:24:05.051Z,6.69
2023-04-18T00:24:15.294Z,6.69
2023-04-18T00:24:25.082Z,6.69
2023-04-18T00:24:35.158Z,6.69
2023-04-18T00:24:45.204Z,6.69
2023-04-18T00:24:55.217Z,6.69
2023-04-18T00:25:05.306Z,6.69
2023-04-18T00:25:15.342Z,6.68
2023-04-18T00:25:25.378Z,6.69
2023-04-18T00:25:35.399Z,6.68
2023-04-18T00:25:45.444Z,6.69
2023-04-18T00:25:55.466Z,6.69
2023-04-18T00:26:05.485Z,6.69
2023-04-18T00:26:15.523Z,6.68
2023-04-18T00:26:25.550Z,6.69
2023-04-18T00:26:35.584Z,6.69
2023-04-18T00:26:45.633Z,6.69
2023-04-18T00:26:55.668Z,6.68
2023-04-18T00:27:05.807Z,6.69
2023-04-18T00:27:15.816Z,6.68
2023-04-18T00:27:25.851Z,6.69
2023-04-18T00:27:35.920Z,6.68
2023-04-18T00:27:45.968Z,6.68
2023-04-18T00:27:55.988Z,6.68
2023-04-18T00:28:06.015Z,6.69
2023-04-18T00:28:16.057Z,6.68
2023-04-18T00:28:26.084Z,6.69
2023-04-18T00:28:36.139Z,6.69
2023-04-18T00:28:46.174Z,6.69
2023-04-18T00:28:56.213Z,6.68
2023-04-18T00:29:06.254Z,6.68
2023-04-18T00:29:16.280Z,6.68
2023-04-18T00:29:26.318Z,6.68
2023-04-18T00:29:36.347Z,6.68
2023-04-18T00:29:46.496Z,6.65
2023-04-18T00:29:56.395Z,6.65
2023-04-18T00:30:06.429Z,6.65
2023-04-18T00:30:16.453Z,6.65
2023-04-18T00:30:26.480Z,6.64
2023-04-18T00:30:36.522Z,6.64
2023-04-18T00:30:46.533Z,6.64
2023-04-18T00:30:56.648Z,6.64
2023-04-18T00:31:06.737Z,6.63
2023-04-18T00:31:16.771Z,6.63
2023-04-18T00:31:26.890Z,6.64
2023-04-18T00:31:36.926Z,6.61
2023-04-18T00:31:46.967Z,6.63
2023-04-18T00:31:57.006Z,6.63
2023-04-18T00:32:07.042Z,6.63
2023-04-18T00:32:17.078Z,6.61
2023-04-18T00:32:27.174Z,6.61
2023-04-18T00:32:37.208Z,6.63
2023-04-18T00:32:47.277Z,6.63
2023-04-18T00:32:57.332Z,6.63
2023-04-18T00:33:07.327Z,6.61
2023-04-18T00:33:17.369Z,6.61
2023-04-18T00:33:27.421Z,6.60
2023-04-18T00:33:37.469Z,6.61
2023-04-18T00:33:47.466Z,6.61
2023-04-18T00:33:57.480Z,6.61
2023-04-18T00:34:07.484Z,6.61
2023-04-18T00:34:17.503Z,6.61
2023-04-18T00:34:27.519Z,6.63
2023-04-18T00:34:37.560Z,6.63
2023-04-18T00:34:47.603Z,6.63
2023-04-18T00:34:57.612Z,6.63
2023-04-18T00:35:07.639Z,6.64
2023-04-18T00:35:17.658Z,6.63
2023-04-18T00:35:27.670Z,6.64
2023-04-18T00:35:37.879Z,6.64
2023-04-18T00:35:47.864Z,6.63
2023-04-18T00:35:58.044Z,6.64
2023-04-18T00:36:08.056Z,6.63
2023-04-18T00:36:18.085Z,6.64
2023-04-18T00:36:28.097Z,6.63
2023-04-18T00:36:38.191Z,6.63
2023-04-18T00:36:48.221Z,6.64
2023-04-18T00:36:58.225Z,6.64
2023-04-18T00:37:08.225Z,6.61
2023-04-18T00:37:18.241Z,6.63
2023-04-18T00:37:28.330Z,6.63
2023-04-18T00:37:38.328Z,6.63
2023-04-18T00:37:48.345Z,6.64
2023-04-18T00:37:58.518Z,6.61
2023-04-18T00:38:08.692Z,6.63
2023-04-18T00:38:18.728Z,6.63
2023-04-18T00:38:28.887Z,6.63
2023-04-18T00:38:38.900Z,6.64
2023-04-18T00:38:48.898Z,6.64
2023-04-18T00:38:58.909Z,6.64
2023-04-18T00:39:08.922Z,6.64
2023-04-18T00:39:18.953Z,6.64
2023-04-18T00:39:28.966Z,6.64
2023-04-18T00:39:39.145Z,6.64
2023-04-18T00:39:49.185Z,6.64
2023-04-18T00:39:59.212Z,6.64
2023-04-18T00:40:09.228Z,6.64
2023-04-18T00:40:19.261Z,6.64
2023-04-18T00:40:29.281Z,6.64
2023-04-18T00:40:39.314Z,6.64
2023-04-18T00:40:49.352Z,6.64
2023-04-18T00:40:59.395Z,6.64
2023-04-18T00:41:09.451Z,6.64
2023-04-18T00:41:19.489Z,6.64
2023-04-18T00:41:29.562Z,6.63
2023-04-18T00:41:39.600Z,6.64
2023-04-18T00:41:49.639Z,6.64
2023-04-18T00:41:59.666Z,6.65
2023-04-18T00:42:09.713Z,6.64
2023-04-18T00:42:19.737Z,6.64
2023-04-18T00:42:29.763Z,6.64
2023-04-18T00:42:39.802Z,6.64
2023-04-18T00:42:49.842Z,6.65
2023-04-18T00:42:59.893Z,6.64
2023-04-18T00:43:09.947Z,6.65
2023-04-18T00:43:19.991Z,6.64
2023-04-18T00:43:30.023Z,6.61
2023-04-18T00:43:40.058Z,6.64
2023-04-18T00:43:50.087Z,6.64
2023-04-18T00:44:00.156Z,6.63
2023-04-18T00:44:10.171Z,6.64
2023-04-18T00:44:20.202Z,6.63
2023-04-18T00:44:30.245Z,6.64
2023-04-18T00:44:40.273Z,6.61
2023-04-18T00:44:50.315Z,6.63
2023-04-18T00:45:00.365Z,6.61
2023-04-18T00:45:10.385Z,6.63
2023-04-18T00:45:20.414Z,6.64
2023-04-18T00:45:30.467Z,6.63
2023-04-18T00:45:40.496Z,6.63
2023-04-18T00:45:50.563Z,6.64
2023-04-18T00:46:00.628Z,6.64
2023-04-18T00:46:10.712Z,6.63
2023-04-18T00:46:20.772Z,6.63
2023-04-18T00:46:30.862Z,6.64
2023-04-18T00:46:41.022Z,6.63
2023-04-18T00:46:50.954Z,6.64
2023-04-18T00:47:00.983Z,6.64
2023-04-18T00:47:11.048Z,6.65
2023-04-18T00:47:21.103Z,6.65
2023-04-18T00:47:31.172Z,6.65
2023-04-18T00:47:41.252Z,6.65
2023-04-18T00:47:51.315Z,6.65
2023-04-18T00:48:01.412Z,6.69
2023-04-18T00:48:11.424Z,6.68
2023-04-18T00:48:21.450Z,6.65
2023-04-18T00:48:31.495Z,6.65
2023-04-18T00:48:41.523Z,6.68
2023-04-18T00:48:51.607Z,6.68
2023-04-18T00:49:01.654Z,6.65
2023-04-18T00:49:11.707Z,6.68
2023-04-18T00:49:21.736Z,6.68
2023-04-18T00:49:31.775Z,6.68
2023-04-18T00:49:41.796Z,6.69
2023-04-18T00:49:51.844Z,6.68
2023-04-18T00:50:01.866Z,6.68
2023-04-18T00:50:11.912Z,6.68
2023-04-18T00:50:21.959Z,6.69
2023-04-18T00:50:31.991Z,6.69
2023-04-18T00:50:42.045Z,6.68
2023-04-18T00:50:52.084Z,6.65
2023-04-18T00:51:02.145Z,6.68
2023-04-18T00:51:12.168Z,6.68
2023-04-18T00:51:22.257Z,6.65
2023-04-18T00:51:32.305Z,6.68
2023-04-18T00:51:42.377Z,6.65
2023-04-18T00:51:52.413Z,6.68
2023-04-18T00:52:02.453Z,6.68
2023-04-18T00:52:12.509Z,6.68
2023-04-18T00:52:22.566Z,6.65
2023-04-18T00:52:32.603Z,6.68
2023-04-18T00:52:42.639Z,6.68
2023-04-18T00:52:52.671Z,6.65
2023-04-18T00:53:02.710Z,6.68
2023-04-18T00:53:12.752Z,6.68
2023-04-18T00:53:22.780Z,6.69
2023-04-18T00:53:32.837Z,6.68
2023-04-18T00:53:42.934Z,6.69
2023-04-18T00:53:52.986Z,6.69
2023-04-18T00:54:03.024Z,6.71
2023-04-18T00:54:13.403Z,6.68
2023-04-18T00:54:23.212Z,6.69
2023-04-18T00:54:33.289Z,6.71
2023-04-18T00:54:43.323Z,6.71
2023-04-18T00:54:53.361Z,6.71
2023-04-18T00:55:03.410Z,6.69
2023-04-18T00:55:13.537Z,6.71
2023-04-18T00:55:23.501Z,6.71
2023-04-18T00:55:33.544Z,6.71
2023-04-18T00:55:43.600Z,6.71
2023-04-18T00:55:53.646Z,6.71
2023-04-18T00:56:03.684Z,6.72
2023-04-18T00:56:13.739Z,6.72
2023-04-18T00:56:23.831Z,6.73
2023-04-18T00:56:33.837Z,6.72
2023-04-18T00:56:43.874Z,6.73
2023-04-18T00:56:53.938Z,6.73
2023-04-18T00:57:04.081Z,6.72
2023-04-18T00:57:14.098Z,6.73
2023-04-18T00:57:24.130Z,6.75
2023-04-18T00:57:34.173Z,6.75
2023-04-18T00:57:44.195Z,6.75
2023-04-18T00:57:54.253Z,6.75
2023-04-18T00:58:04.334Z,6.75
2023-04-18T00:58:14.360Z,6.75
2023-04-18T00:58:24.403Z,6.76
2023-04-18T00:58:34.435Z,6.76
2023-04-18T00:58:44.470Z,6.76
2023-04-18T00:58:54.508Z,6.78
2023-04-18T00:59:04.540Z,6.78
2023-04-18T00:59:14.574Z,6.76
2023-04-18T00:59:24.645Z,6.78
2023-04-18T00:59:34.748Z,6.78
2023-04-18T00:59:44.781Z,6.78
2023-04-18T00:59:54.854Z,6.78
2023-04-18T01:00:04.921Z,6.78
2023-04-18T01:00:14.946Z,6.78
2023-04-18T01:00:25.087Z,6.79
2023-04-18T01:00:35.157Z,6.78
2023-04-18T01:00:45.181Z,6.79
2023-04-18T01:00:55.232Z,6.79
2023-04-18T01:01:05.307Z,6.81
2023-04-18T01:01:15.334Z,6.82
2023-04-18T01:01:25.352Z,6.82
2023-04-18T01:01:35.456Z,6.81
2023-04-18T01:01:45.582Z,6.82
2023-04-18T01:01:55.738Z,6.82
2023-04-18T01:02:05.831Z,6.82
2023-04-18T01:02:15.859Z,6.82
2023-04-18T01:02:25.933Z,6.82
2023-04-18T01:02:35.955Z,6.81
2023-04-18T01:02:45.912Z,6.82
2023-04-18T01:02:56.266Z,6.81
2023-04-18T01:03:06.232Z,6.83
2023-04-18T01:03:16.315Z,6.82
2023-04-18T01:03:26.286Z,6.82
2023-04-18T01:03:36.443Z,6.83
2023-04-18T01:03:46.467Z,6.82
2023-04-18T01:03:56.505Z,6.83
2023-04-18T01:04:06.468Z,6.83
2023-04-18T01:04:16.792Z,6.83
2023-04-18T01:04:26.785Z,6.82
2023-04-18T01:04:36.709Z,6.83
2023-04-18T01:04:46.711Z,6.83
2023-04-18T01:04:56.744Z,6.82
2023-04-18T01:05:06.802Z,6.82
2023-04-18T01:05:16.835Z,6.82
2023-04-18T01:05:26.891Z,6.83
2023-04-18T01:05:36.932Z,6.83
2023-04-18T01:05:46.941Z,6.83
2023-04-18T01:05:56.951Z,6.83
2023-04-18T01:06:07.026Z,6.86
2023-04-18T01:06:17.042Z,6.86
2023-04-18T01:06:27.062Z,6.83
2023-04-18T01:06:37.159Z,6.83
2023-04-18T01:06:47.190Z,6.86
2023-04-18T01:06:57.195Z,6.86
2023-04-18T01:07:07.390Z,6.86
2023-04-18T01:07:17.422Z,6.86
2023-04-18T01:07:27.455Z,6.86
2023-04-18T01:07:37.489Z,6.87
2023-04-18T01:07:47.514Z,6.87
2023-04-18T01:07:57.545Z,6.87
2023-04-18T01:08:07.589Z,6.87
2023-04-18T01:08:17.636Z,6.86
2023-04-18T01:08:27.671Z,6.87
2023-04-18T01:08:37.714Z,6.86
2023-04-18T01:08:47.720Z,6.87
2023-04-18T01:08:57.745Z,6.87
2023-04-18T06:52:39.762Z,7.42
2023-04-18T06:52:49.817Z,7.44
2023-04-18T06:52:59.885Z,7.47
2023-04-18T06:53:09.926Z,7.47
2023-04-18T06:53:20.015Z,7.50
2023-04-18T06:53:30.056Z,7.48
2023-04-18T06:53:40.090Z,7.50
2023-04-18T06:53:50.150Z,7.51
2023-04-18T06:54:00.235Z,7.50
2023-04-18T06:54:10.295Z,7.50
2023-04-18T06:54:20.341Z,7.50
2023-04-18T06:54:30.376Z,7.51
2023-04-18T06:54:40.418Z,7.51
2023-04-18T06:54:50.470Z,7.51
2023-04-18T06:55:00.556Z,7.52
2023-04-18T06:55:10.604Z,7.51
2023-04-18T06:55:20.679Z,7.51
2023-04-18T06:55:30.783Z,7.52
2023-04-18T06:55:40.864Z,7.52
2023-04-18T06:55:50.901Z,7.52
2023-04-18T06:56:00.966Z,7.54
2023-04-18T06:56:11.007Z,7.54
2023-04-18T06:56:21.053Z,7.54
2023-04-18T06:56:31.149Z,7.52
2023-04-18T06:56:41.190Z,7.54
2023-04-18T06:56:51.277Z,7.54
2023-04-18T06:57:01.308Z,7.54
2023-04-18T06:57:11.387Z,7.52
2023-04-18T06:57:21.439Z,7.54
2023-04-18T06:57:31.517Z,7.54
2023-04-18T06:57:41.637Z,7.54
2023-04-18T06:57:51.656Z,7.54
2023-04-18T06:58:01.690Z,7.55
2023-04-18T06:58:11.762Z,7.55
2023-04-18T06:58:21.774Z,7.55
2023-04-18T06:58:31.796Z,7.55
2023-04-18T06:58:41.871Z,7.57
2023-04-18T06:58:51.921Z,7.54
2023-04-18T06:59:01.958Z,7.55
2023-04-18T06:59:12.120Z,7.55
2023-04-18T06:59:22.118Z,7.55
2023-04-18T06:59:32.156Z,7.55
2023-04-18T06:59:42.179Z,7.54
2023-04-18T06:59:52.212Z,7.57
2023-04-18T07:00:02.294Z,7.55
2023-04-18T07:00:12.271Z,7.54
2023-04-18T07:00:22.281Z,7.54
2023-04-18T07:00:32.349Z,7.55
2023-04-18T07:00:42.390Z,7.54
2023-04-18T07:00:52.454Z,7.55
2023-04-18T07:01:02.509Z,7.55
2023-04-18T07:01:12.532Z,7.57
2023-04-18T07:01:22.537Z,7.55
2023-04-18T07:01:32.730Z,7.57
2023-04-18T07:01:42.648Z,7.55
2023-04-18T07:01:52.788Z,7.55
2023-04-18T07:02:02.717Z,7.57
2023-04-18T07:02:12.777Z,7.57
2023-04-18T07:02:22.864Z,7.57
2023-04-18T07:02:32.884Z,7.57
2023-04-18T07:02:42.935Z,7.57
2023-04-18T07:02:52.999Z,7.57
2023-04-18T07:03:03.159Z,7.60
2023-04-18T07:03:13.467Z,7.58
2023-04-18T07:03:23.156Z,7.58
2023-04-18T07:03:33.156Z,7.60
2023-04-18T07:03:43.355Z,7.60
2023-04-18T07:03:53.355Z,7.60
2023-04-18T07:04:03.343Z,7.62
2023-04-18T07:04:13.780Z,7.62
2023-04-18T07:04:23.621Z,7.62
2023-04-18T07:04:33.581Z,7.62
2023-04-18T07:04:43.666Z,7.62
2023-04-18T07:04:53.584Z,7.63
2023-04-18T07:05:03.642Z,7.62
2023-04-18T07:05:13.762Z,7.62
2023-04-18T07:05:23.819Z,7.62
2023-04-18T07:05:33.868Z,7.60
2023-04-18T07:05:43.922Z,7.62
2023-04-18T07:05:54.013Z,7.62
2023-04-18T07:06:04.085Z,7.60
2023-04-18T07:06:14.220Z,7.62
2023-04-18T07:06:24.303Z,7.62
2023-04-18T07:06:34.368Z,7.62
2023-04-18T07:06:44.435Z,7.62
2023-04-18T07:06:54.482Z,7.60
2023-04-18T07:07:04.557Z,7.63
2023-04-18T07:07:14.613Z,7.62
2023-04-18T07:07:24.703Z,7.63
2023-04-18T07:07:34.764Z,7.63
2023-04-18T07:07:44.886Z,7.63
2023-04-18T07:07:54.952Z,7.67
2023-04-18T07:08:04.998Z,7.66
2023-04-18T07:08:15.035Z,7.67
2023-04-18T07:08:25.098Z,7.69
2023-04-18T07:08:35.162Z,7.69
2023-04-18T07:08:45.214Z,7.70
2023-04-18T07:08:55.285Z,7.71
2023-04-18T07:09:05.301Z,7.71
2023-04-18T07:09:15.336Z,7.71
2023-04-18T07:09:25.389Z,7.73
2023-04-18T07:09:35.476Z,7.71
2023-04-18T07:09:45.516Z,7.70
2023-04-18T07:09:55.582Z,7.71
2023-04-18T07:10:05.607Z,7.71
2023-04-18T07:10:15.652Z,7.73
2023-04-18T07:10:25.712Z,7.73
2023-04-18T07:10:35.746Z,7.76
2023-04-18T07:10:45.791Z,7.73
2023-04-18T07:10:55.824Z,7.74
2023-04-18T07:11:05.857Z,7.74
2023-04-18T07:11:15.907Z,7.74
2023-04-18T07:11:25.951Z,7.74
2023-04-18T07:11:36.012Z,7.74
2023-04-18T07:11:46.080Z,7.76
2023-04-18T07:11:56.117Z,7.77
2023-04-18T07:12:06.154Z,7.76
2023-04-18T07:12:16.193Z,7.76
2023-04-18T07:12:26.247Z,7.77
2023-04-18T07:12:36.298Z,7.77
2023-04-18T07:12:46.342Z,7.81
2023-04-18T07:12:56.399Z,7.81
2023-04-18T07:13:06.446Z,7.79
2023-04-18T07:13:16.496Z,7.79
2023-04-18T07:13:26.542Z,7.81
2023-04-18T07:13:36.627Z,7.81
2023-04-18T07:13:46.683Z,7.81
2023-04-18T07:13:56.747Z,7.82
2023-04-18T07:14:06.799Z,7.81
2023-04-18T07:14:17.048Z,7.82
2023-04-18T07:14:26.953Z,7.81
2023-04-18T07:14:37.012Z,7.84
2023-04-18T07:14:47.045Z,7.84
2023-04-18T07:14:57.117Z,7.84
2023-04-18T07:15:07.148Z,7.85
2023-04-18T07:15:17.199Z,7.84
2023-04-18T07:15:27.278Z,7.85
2023-04-18T07:15:37.379Z,7.85
2023-04-18T07:15:47.422Z,7.85
2023-04-18T07:15:57.495Z,7.86
2023-04-18T07:16:07.541Z,7.86
2023-04-18T07:16:17.614Z,7.89
2023-04-18T07:16:27.676Z,7.88
2023-04-18T07:16:37.861Z,7.89
2023-04-18T07:16:47.841Z,7.89
2023-04-18T07:16:57.906Z,7.89
2023-04-18T07:17:07.972Z,7.91
2023-04-18T07:17:18.075Z,7.91
2023-04-18T07:17:28.120Z,7.92
2023-04-18T07:17:38.257Z,7.94
2023-04-18T07:17:48.207Z,7.91
2023-04-18T07:17:58.271Z,7.94
2023-04-18T07:18:08.356Z,7.94
2023-04-18T07:18:26.760Z,7.94
2023-04-18T07:18:37.299Z,7.92
2023-04-18T07:18:40.294Z,7.92
2023-04-18T07:18:50.335Z,7.94
2023-04-18T07:19:00.387Z,7.95
2023-04-18T07:19:10.438Z,7.95
2023-04-18T07:19:20.500Z,7.95
2023-04-18T07:19:30.542Z,7.96
2023-04-18T07:19:40.624Z,7.96
2023-04-18T07:19:50.735Z,7.99
2023-04-18T07:20:00.772Z,7.99
2023-04-18T07:20:12.239Z,7.99
2023-04-18T07:20:20.892Z,8.00
2023-04-18T07:20:30.922Z,8.02
2023-04-18T07:20:40.979Z,8.03
2023-04-18T07:20:51.028Z,8.02
2023-04-18T07:21:01.075Z,8.03
2023-04-18T07:21:11.165Z,8.03
2023-04-18T07:21:21.208Z,8.03
2023-04-18T07:21:31.252Z,8.02
2023-04-18T07:21:41.287Z,8.04
2023-04-18T07:21:51.384Z,8.04
2023-04-18T07:22:01.484Z,8.04
2023-04-18T07:22:11.533Z,8.04
2023-04-18T07:22:21.584Z,8.04
2023-04-18T07:22:31.644Z,8.04
2023-04-18T07:22:41.780Z,8.06
2023-04-18T07:22:51.816Z,8.06
2023-04-18T07:23:01.887Z,8.07
2023-04-18T07:23:11.981Z,8.06
2023-04-18T07:23:22.021Z,8.07
2023-04-18T07:23:32.098Z,8.06
2023-04-18T07:23:42.138Z,8.07
2023-04-18T07:23:52.228Z,8.07
2023-04-18T07:24:02.280Z,8.07
2023-04-18T07:24:12.572Z,8.06
2023-04-18T07:24:22.281Z,8.07
2023-04-18T07:24:32.325Z,8.07
2023-04-18T07:24:42.459Z,8.06
2023-04-18T07:24:52.511Z,8.06
2023-04-18T07:25:02.557Z,8.09
2023-04-18T07:25:12.626Z,8.09
2023-04-18T07:25:22.699Z,8.09
2023-04-18T07:25:32.744Z,8.10
2023-04-18T07:25:42.786Z,8.09
2023-04-18T07:25:52.832Z,8.10
2023-04-18T07:26:03.099Z,8.10
2023-04-18T07:26:12.896Z,8.10
2023-04-18T07:26:22.993Z,8.09
2023-04-18T07:26:33.108Z,8.12
2023-04-18T07:26:43.168Z,8.12
2023-04-18T07:26:54.904Z,8.12
2023-04-18T07:27:03.365Z,8.12
2023-04-18T07:27:13.378Z,8.12
2023-04-18T07:27:23.424Z,8.12
2023-04-18T07:27:33.452Z,8.12
2023-04-18T07:27:43.554Z,8.12
2023-04-18T07:27:53.606Z,8.13
2023-04-18T07:28:03.646Z,8.13
2023-04-18T07:28:13.681Z,8.13
2023-04-18T07:28:23.762Z,8.14
2023-04-18T07:28:33.806Z,8.17
2023-04-18T07:28:43.846Z,8.13
2023-04-18T07:28:53.892Z,8.17
2023-04-18T07:29:03.996Z,8.14
2023-04-18T07:29:14.054Z,8.17
2023-04-18T07:29:24.150Z,8.14
2023-04-18T07:29:34.231Z,8.17
2023-04-18T07:29:44.280Z,8.14
2023-04-18T07:29:54.318Z,8.17
2023-04-18T07:30:04.419Z,8.17
2023-04-18T07:30:14.459Z,8.18
2023-04-18T07:30:24.529Z,8.18
2023-04-18T07:30:34.562Z,8.20
2023-04-18T07:30:44.756Z,8.18
2023-04-18T07:30:54.718Z,8.18
2023-04-18T07:31:04.797Z,8.18
2023-04-18T07:31:14.851Z,8.20
2023-04-18T07:31:24.932Z,8.20
2023-04-18T07:31:34.983Z,8.20
2023-04-18T07:31:45.014Z,8.21
2023-04-18T07:31:55.040Z,8.20
2023-04-18T07:32:06.885Z,8.20
2023-04-18T07:32:15.173Z,8.20
2023-04-18T07:32:25.227Z,8.21
2023-04-18T07:32:35.286Z,8.20
2023-04-18T07:32:45.318Z,8.20
2023-04-18T07:32:55.468Z,8.20
2023-04-18T07:33:05.685Z,8.20
2023-04-18T07:33:15.521Z,8.17
2023-04-18T07:33:25.562Z,8.14
2023-04-18T07:33:35.629Z,8.14
2023-04-18T07:33:45.673Z,8.17
2023-04-18T07:33:55.768Z,8.17
2023-04-18T07:34:05.793Z,8.17
2023-04-18T07:34:16.088Z,8.14
2023-04-18T07:34:25.972Z,8.14
2023-04-18T07:34:36.092Z,8.14
2023-04-18T07:34:46.110Z,8.14
2023-04-18T07:34:56.164Z,8.14
2023-04-18T07:35:06.213Z,8.14
2023-04-18T07:35:16.244Z,8.17
2023-04-18T07:35:26.365Z,8.17
2023-04-18T07:35:36.385Z,8.17
2023-04-18T07:35:46.462Z,8.17
2023-04-18T07:35:56.521Z,8.18
2023-04-18T07:36:06.570Z,8.18
2023-04-18T07:36:16.634Z,8.17
2023-04-18T07:36:26.654Z,8.17
2023-04-18T07:36:36.717Z,8.17
2023-04-18T07:36:46.794Z,8.18
2023-04-18T07:36:56.912Z,8.18
2023-04-18T07:37:06.957Z,8.17
2023-04-18T07:37:17.004Z,8.20
2023-04-18T07:37:27.169Z,8.20
2023-04-18T07:37:37.209Z,8.20
2023-04-18T07:37:47.274Z,8.20
2023-04-18T07:37:57.341Z,8.20
2023-04-18T07:38:07.392Z,8.20
2023-04-18T07:38:17.436Z,8.21
2023-04-18T07:38:27.550Z,8.21
2023-04-18T07:38:37.644Z,8.21
2023-04-18T07:38:47.667Z,8.21
2023-04-18T07:38:57.771Z,8.21
2023-04-18T07:39:07.799Z,8.21
2023-04-18T07:39:17.871Z,8.22
2023-04-18T07:39:27.980Z,8.22
2023-04-18T07:39:38.022Z,8.24
2023-04-18T07:39:48.810Z,8.24
2023-04-18T07:39:58.059Z,8.25
2023-04-18T07:40:08.116Z,8.27
2023-04-18T07:40:18.162Z,8.27
2023-04-18T07:40:28.260Z,8.27
2023-04-18T07:40:38.376Z,8.28
2023-04-18T07:40:58.546Z,8.28
2023-04-18T07:41:08.665Z,8.28
2023-04-18T07:41:18.753Z,8.28
2023-04-18T07:41:28.803Z,8.29
2023-04-18T07:41:38.883Z,8.31
2023-04-18T07:41:48.834Z,8.31
2023-04-18T07:41:58.873Z,8.31
2023-04-18T07:42:08.926Z,8.32
2023-04-18T07:42:18.972Z,8.31
2023-04-18T07:42:29.029Z,8.34
2023-04-18T07:42:39.080Z,8.34
2023-04-18T07:42:49.146Z,8.36
2023-04-18T07:42:59.214Z,8.36
2023-04-18T07:43:09.268Z,8.37
2023-04-18T07:43:20.796Z,8.36
2023-04-18T07:43:29.434Z,8.36
2023-04-18T07:43:39.510Z,8.37
2023-04-18T07:43:49.558Z,8.39
2023-04-18T07:43:59.611Z,8.39
2023-04-18T07:44:09.659Z,8.40
2023-04-18T07:44:19.750Z,8.42
2023-04-18T07:44:29.805Z,8.40
2023-04-18T07:44:39.853Z,8.42
2023-04-18T07:44:49.925Z,8.42
2023-04-18T07:45:00.047Z,8.43
2023-04-18T07:45:10.096Z,8.43
2023-04-18T07:45:20.129Z,8.43
2023-04-18T07:45:30.183Z,8.43
2023-04-18T07:45:40.302Z,8.43
2023-04-18T07:45:50.367Z,8.42
2023-04-18T07:46:00.473Z,8.43
2023-04-18T07:46:10.518Z,8.43
2023-04-18T07:46:20.652Z,8.43
2023-04-18T07:46:30.578Z,8.43
2023-04-18T07:46:40.756Z,8.43
2023-04-18T07:46:50.632Z,8.42
2023-04-18T07:47:00.668Z,8.43
2023-04-18T07:47:10.802Z,8.42
2023-04-18T07:47:22.421Z,8.43
2023-04-18T07:47:31.640Z,8.43
2023-04-18T07:47:40.958Z,8.45
2023-04-18T07:47:51.029Z,8.43
2023-04-18T07:48:01.071Z,8.45
2023-04-18T07:48:11.344Z,8.45
2023-04-18T07:48:21.239Z,8.43
2023-04-18T07:48:31.280Z,8.45
2023-04-18T07:48:41.315Z,8.45
2023-04-18T07:48:51.367Z,8.46
2023-04-18T07:49:01.417Z,8.46
2023-04-18T07:49:11.669Z,8.46
2023-04-18T07:49:21.611Z,8.46
2023-04-18T07:49:31.674Z,8.46
2023-04-18T07:49:41.798Z,8.47
2023-04-18T07:49:51.840Z,8.47
2023-04-18T07:50:01.952Z,8.47
2023-04-18T07:50:12.050Z,8.46
2023-04-18T07:50:22.113Z,8.47
2023-04-18T07:50:32.187Z,8.49
2023-04-18T07:50:42.245Z,8.47
2023-04-18T07:50:52.311Z,8.49
2023-04-18T07:51:02.353Z,8.49
2023-04-18T07:51:12.440Z,8.49
2023-04-18T07:51:22.504Z,8.49
2023-04-18T07:51:32.566Z,8.49
2023-04-18T07:51:42.611Z,8.50
2023-04-18T07:51:52.658Z,8.49
2023-04-18T07:52:02.802Z,8.50
2023-04-18T07:52:12.875Z,8.49
2023-04-18T07:52:22.912Z,8.50
2023-04-18T07:52:33.036Z,8.50
2023-04-18T07:52:43.085Z,8.54
2023-04-18T07:52:53.154Z,8.52
2023-04-18T07:53:03.209Z,8.54
2023-04-18T07:53:13.249Z,8.54
2023-04-18T07:53:23.307Z,8.55
2023-04-18T07:53:33.343Z,8.57
2023-04-18T07:53:43.421Z,8.55
2023-04-18T07:53:53.471Z,8.57
2023-04-18T07:54:03.532Z,8.58
2023-04-18T07:54:13.589Z,8.58
2023-04-18T07:54:23.688Z,8.58
2023-04-18T07:54:33.718Z,8.58
2023-04-18T07:54:43.767Z,8.58
2023-04-18T07:54:53.817Z,8.60
2023-04-18T07:55:03.865Z,8.61
2023-04-18T07:55:13.931Z,8.60
2023-04-18T07:55:23.989Z,8.60
2023-04-18T07:55:34.025Z,8.60
2023-04-18T07:55:44.072Z,8.61
2023-04-18T07:55:54.103Z,8.61
2023-04-18T07:56:04.128Z,8.61
2023-04-18T07:56:14.193Z,8.61
2023-04-18T07:56:24.308Z,8.64
2023-04-18T07:56:34.346Z,8.63
2023-04-18T07:56:44.511Z,8.64
2023-04-18T07:56:54.541Z,8.64
2023-04-18T07:57:04.584Z,8.63
2023-04-18T07:57:14.632Z,8.64
2023-04-18T07:57:24.668Z,8.65
2023-04-18T07:57:34.718Z,8.64